Time;durP1;ratioP1;P1;durP2;ratioP2;P2;SDS_P1;SDS_P2;PMS_P1;PMS_P2;Temp;Humidity;BMP_temperature;BMP_pressure;BME280_temperature;BME280_humidity;BME280_pressure;Samples;Min_cycle;Max_cycle;Signal;HPM_P1;HPM_P2
2022/06/24 00:00:40;;;;;;;9.30;5.85;;;;;;;20.39;100.00;97686.16;5071855;28;20024;-75
2022/06/24 00:03:06;;;;;;;10.63;5.78;;;;;;;20.50;100.00;97678.03;5073155;28;20117;-75
2022/06/24 00:05:35;;;;;;;9.43;6.03;;;;;;;20.42;100.00;97663.22;5073187;28;20036;-76
2022/06/24 00:08:00;;;;;;;8.32;5.75;;;;;;;20.45;100.00;97675.56;5073039;28;20021;-75
2022/06/24 00:10:32;;;;;;;10.68;6.18;;;;;;;20.49;100.00;97684.75;5072972;28;20024;-74
2022/06/24 00:12:58;;;;;;;7.97;6.13;;;;;;;20.46;100.00;97677.97;5072922;28;20094;-74
2022/06/24 00:15:28;;;;;;;8.57;5.93;;;;;;;20.50;100.00;97680.81;5073365;28;20029;-75
2022/06/24 00:17:54;;;;;;;8.45;6.03;;;;;;;20.63;100.00;97685.84;5072729;28;20032;-75
2022/06/24 00:20:21;;;;;;;8.35;6.15;;;;;;;20.67;100.00;97685.94;5072933;28;20031;-74
2022/06/24 00:22:50;;;;;;;11.05;6.28;;;;;;;20.66;100.00;97685.13;5072820;28;20412;-74
2022/06/24 00:25:17;;;;;;;9.65;6.57;;;;;;;20.54;100.00;97687.25;5071943;28;20089;-74
2022/06/24 00:28:02;;;;;;;10.52;7.00;;;;;;;20.45;100.00;97676.38;5076839;28;20392;-75
2022/06/24 00:30:41;;;;;;;10.45;7.50;;;;;;;20.59;100.00;97675.81;5078161;28;20052;-75
2022/06/24 00:33:21;;;;;;;10.93;7.45;;;;;;;20.63;100.00;97683.06;5078190;28;20029;-75
2022/06/24 00:35:52;;;;;;;10.85;6.68;;;;;;;20.67;100.00;97678.41;5072679;28;20035;-74
2022/06/24 00:38:37;;;;;;;9.68;6.65;;;;;;;20.69;100.00;97683.56;5072425;28;20059;-74
2022/06/24 00:41:09;;;;;;;11.75;7.30;;;;;;;20.82;100.00;97687.81;5072757;28;21758;-74
2022/06/24 00:43:37;;;;;;;9.30;6.70;;;;;;;20.74;100.00;97672.94;5072394;28;20043;-75
2022/06/24 00:46:31;;;;;;;10.13;7.35;;;;;;;20.76;100.00;97665.06;5071478;28;20070;-74
2022/06/24 00:48:58;;;;;;;10.20;6.60;;;;;;;20.71;100.00;97659.78;5072301;28;20024;-74
2022/06/24 00:51:38;;;;;;;10.13;6.95;;;;;;;20.63;100.00;97658.06;5072151;28;20366;-76
2022/06/24 00:54:13;;;;;;;11.45;7.65;;;;;;;20.55;100.00;97656.28;5072142;28;20030;-76
2022/06/24 00:56:38;;;;;;;7.90;6.93;;;;;;;20.56;100.00;97640.44;5072183;28;20046;-75
2022/06/24 00:59:08;;;;;;;10.88;7.50;;;;;;;20.64;100.00;97640.19;5071897;28;20048;-74
2022/06/24 01:01:36;;;;;;;9.00;6.88;;;;;;;20.52;100.00;97629.25;5071975;28;20032;-73
2022/06/24 01:04:04;;;;;;;9.30;6.85;;;;;;;20.52;100.00;97636.75;5072013;28;20028;-75
2022/06/24 01:06:30;;;;;;;13.50;7.03;;;;;;;20.33;100.00;97637.59;5071905;28;20039;-74
2022/06/24 01:08:56;;;;;;;13.32;7.53;;;;;;;20.40;100.00;97636.94;5071901;28;20028;-74
2022/06/24 01:11:26;;;;;;;9.55;7.07;;;;;;;20.43;100.00;97637.00;5071726;28;20044;-75
2022/06/24 01:13:52;;;;;;;11.27;7.30;;;;;;;20.46;100.00;97638.25;5071697;28;20397;-74
2022/06/24 01:16:25;;;;;;;11.38;7.07;;;;;;;20.48;100.00;97638.69;5072284;28;20587;-75
2022/06/24 01:18:58;;;;;;;13.57;7.50;;;;;;;20.38;100.00;97617.88;5071593;28;20115;-75
2022/06/24 01:21:38;;;;;;;10.15;7.55;;;;;;;20.50;100.00;97630.78;5070405;28;20028;-74
2022/06/24 01:24:18;;;;;;;8.27;6.90;;;;;;;20.45;100.00;97614.41;5071611;28;20028;-74
2022/06/24 01:26:50;;;;;;;8.43;6.82;;;;;;;20.39;100.00;97602.81;5071976;28;20115;-75
2022/06/24 01:29:16;;;;;;;10.98;6.30;;;;;;;20.26;100.00;97602.16;5071804;28;20028;-74
2022/06/24 01:31:43;;;;;;;10.27;6.80;;;;;;;20.22;100.00;97604.03;5071680;28;20020;-75
2022/06/24 01:34:10;;;;;;;10.98;7.28;;;;;;;20.17;100.00;97612.66;5071748;28;20048;-76
2022/06/24 01:36:36;;;;;;;9.38;6.38;;;;;;;20.17;100.00;97601.53;5072845;28;20123;-74
2022/06/24 01:39:03;;;;;;;8.38;6.18;;;;;;;20.22;100.00;97601.25;5076649;28;20444;-76
2022/06/24 01:41:28;;;;;;;10.48;7.25;;;;;;;20.11;100.00;97600.22;5072870;28;20036;-75
2022/06/24 01:43:54;;;;;;;8.80;7.00;;;;;;;20.11;100.00;97600.22;5071359;28;20028;-75
2022/06/24 01:46:19;;;;;;;8.38;7.22;;;;;;;20.09;100.00;97599.78;5071535;28;20021;-74
2022/06/24 01:48:45;;;;;;;8.82;7.93;;;;;;;20.08;100.00;97597.41;5071494;28;20469;-76
2022/06/24 01:51:13;;;;;;;12.20;7.60;;;;;;;20.07;100.00;97596.59;5069773;28;20071;-75
2022/06/24 01:53:39;;;;;;;10.25;7.25;;;;;;;20.09;100.00;97596.22;5070876;28;20374;-74
2022/06/24 01:56:04;;;;;;;11.95;7.82;;;;;;;20.19;100.00;97603.97;5070893;28;20048;-75
2022/06/24 01:58:30;;;;;;;11.65;7.88;;;;;;;20.13;100.00;97595.13;5071064;28;20073;-74
2022/06/24 02:00:55;;;;;;;9.63;6.70;;;;;;;20.13;100.00;97584.00;5070870;28;20025;-76
2022/06/24 02:03:20;;;;;;;9.00;6.30;;;;;;;20.15;100.00;97591.97;5070877;28;20059;-73
2022/06/24 02:05:46;;;;;;;9.77;6.38;;;;;;;20.18;100.00;97580.94;5071174;28;20435;-75
2022/06/24 02:08:12;;;;;;;7.70;6.40;;;;;;;20.03;100.00;97581.81;5070739;28;20047;-75
2022/06/24 02:13:29;;;;;;;10.65;6.43;;;;;;;20.08;100.00;97587.06;5071580;28;20048;-75
2022/06/24 02:16:00;;;;;;;9.73;6.63;;;;;;;20.09;100.00;97594.25;5071651;28;20056;-74
2022/06/24 02:18:27;;;;;;;10.10;5.72;;;;;;;20.06;100.00;97594.97;5070647;28;20874;-76
2022/06/24 02:20:53;;;;;;;6.93;5.93;;;;;;;20.00;100.00;97596.44;5070742;28;20029;-75
2022/06/24 02:23:21;;;;;;;8.05;5.90;;;;;;;19.92;100.00;97583.59;5070497;28;20104;-74
2022/06/24 02:25:50;;;;;;;9.80;6.18;;;;;;;19.93;100.00;97604.63;5070507;28;20020;-75
2022/06/24 02:28:17;;;;;;;7.85;5.90;;;;;;;19.98;100.00;97604.34;5070608;28;20032;-74
2022/06/24 02:30:43;;;;;;;8.40;6.50;;;;;;;19.98;100.00;97609.91;5070459;28;20020;-75
2022/06/24 02:33:09;;;;;;;8.38;6.53;;;;;;;19.87;100.00;97603.31;5070743;28;20029;-76
2022/06/24 02:35:36;;;;;;;9.02;6.07;;;;;;;19.92;100.00;97600.25;5070477;28;20024;-74
2022/06/24 02:38:02;;;;;;;7.85;6.28;;;;;;;19.87;100.00;97596.94;5070567;28;20485;-74
2022/06/24 02:40:45;;;;;;;11.10;6.82;;;;;;;19.80;100.00;97594.81;5070394;28;20032;-75
2022/06/24 02:43:16;;;;;;;9.55;6.57;;;;;;;19.80;100.00;97594.81;5069288;28;20496;-75
2022/06/24 02:45:44;;;;;;;10.50;6.25;;;;;;;19.77;100.00;97584.44;5070852;28;20029;-75
2022/06/24 02:48:09;;;;;;;9.25;7.22;;;;;;;19.75;100.00;97586.78;5072039;28;20013;-74
2022/06/24 02:50:39;;;;;;;8.20;6.72;;;;;;;19.75;100.00;97584.00;5074537;28;20035;-75
2022/06/24 02:53:05;;;;;;;9.48;6.05;;;;;;;19.84;100.00;97581.81;5074618;28;20021;-74
2022/06/24 02:55:30;;;;;;;11.10;6.65;;;;;;;19.84;100.00;97584.59;5074409;28;20027;-75
2022/06/24 02:57:55;;;;;;;12.38;6.30;;;;;;;19.88;100.00;97585.47;5072916;28;20465;-75
2022/06/24 03:00:21;;;;;;;8.23;6.05;;;;;;;19.75;100.00;97572.91;5074302;28;20028;-76
2022/06/24 03:02:46;;;;;;;16.42;8.45;;;;;;;19.77;100.00;97573.34;5074477;28;20032;-76
2022/06/24 03:05:12;;;;;;;11.63;7.25;;;;;;;19.71;100.00;97588.66;5074286;28;20102;-75
2022/06/24 03:07:37;;;;;;;10.38;6.82;;;;;;;19.70;100.00;97587.88;5072729;28;20031;-76
2022/06/24 03:10:03;;;;;;;8.20;6.38;;;;;;;19.71;100.00;97591.44;5096029;28;20061;-74
2022/06/24 03:12:28;;;;;;;8.68;6.65;;;;;;;19.82;100.00;97581.38;5113435;28;20487;-76
2022/06/24 03:14:53;;;;;;;9.55;6.43;;;;;;;19.78;100.00;97584.09;5114903;28;20027;-75
2022/06/24 03:17:19;;;;;;;8.55;6.35;;;;;;;19.85;100.00;97577.88;5114784;28;20119;-75
2022/06/24 03:19:44;;;;;;;12.15;7.63;;;;;;;19.76;100.00;97582.84;5114561;28;20028;-74
2022/06/24 03:22:10;;;;;;;8.35;6.80;;;;;;;19.83;100.00;97585.75;5114579;28;20069;-74
2022/06/24 03:24:35;;;;;;;10.75;6.65;;;;;;;19.85;100.00;97583.44;5114757;28;20030;-75
2022/06/24 03:27:00;;;;;;;8.57;7.13;;;;;;;19.93;100.00;97585.19;5114371;28;20077;-75
2022/06/24 03:29:26;;;;;;;8.88;6.65;;;;;;;19.94;100.00;97581.25;5114515;28;20119;-75
2022/06/24 03:31:51;;;;;;;14.02;6.88;;;;;;;19.99;100.00;97589.25;5114761;28;20081;-75
2022/06/24 03:34:16;;;;;;;9.50;7.05;;;;;;;20.05;100.00;97590.56;5114522;28;20498;-75
2022/06/24 03:36:42;;;;;;;10.10;6.47;;;;;;;20.03;100.00;97583.78;5114191;28;20035;-75
2022/06/24 03:39:07;;;;;;;12.95;6.78;;;;;;;20.05;100.00;97598.91;5114666;28;20038;-74
2022/06/24 03:41:33;;;;;;;11.50;6.32;;;;;;;20.10;100.00;97590.31;5114441;28;20034;-76
2022/06/24 03:44:00;;;;;;;10.40;7.25;;;;;;;20.06;100.00;97589.41;5114390;28;20073;-74
2022/06/24 03:46:25;;;;;;;7.72;6.75;;;;;;;20.00;100.00;97585.34;5114495;27;20391;-76
2022/06/24 03:48:51;;;;;;;9.38;6.60;;;;;;;20.01;100.00;97595.28;5114853;28;20031;-74
2022/06/24 03:51:16;;;;;;;10.10;7.70;;;;;;;20.08;100.00;97587.06;5115649;28;20031;-76
2022/06/24 03:53:41;;;;;;;11.45;6.55;;;;;;;20.16;100.00;97588.84;5115208;28;20024;-76
2022/06/24 03:56:10;;;;;;;11.60;7.78;;;;;;;20.24;100.00;97590.56;5113986;28;20054;-76
2022/06/24 03:58:35;;;;;;;7.20;6.47;;;;;;;20.13;100.00;97580.44;5113432;28;20055;-76
2022/06/24 04:01:02;;;;;;;9.55;6.85;;;;;;;20.18;100.00;97592.03;5113266;28;20069;-77
2022/06/24 04:03:28;;;;;;;9.18;6.45;;;;;;;20.16;100.00;97602.72;5085581;28;20144;-75
2022/06/24 04:05:53;;;;;;;7.55;6.05;;;;;;;20.19;100.00;97590.88;5073124;28;20070;-75
2022/06/24 04:08:19;;;;;;;9.45;7.15;;;;;;;20.25;100.00;97596.94;5081623;28;20016;-76
2022/06/24 04:10:44;;;;;;;7.80;6.57;;;;;;;20.28;100.00;97591.47;5093245;28;20028;-75
2022/06/24 04:13:09;;;;;;;11.32;6.65;;;;;;;20.21;100.00;97585.75;5092997;28;20040;-76
2022/06/24 04:15:35;;;;;;;11.10;7.38;;;;;;;20.22;100.00;97598.47;5092298;28;20024;-75
2022/06/24 04:18:00;;;;;;;8.93;6.85;;;;;;;20.30;100.00;97600.25;5092813;28;20097;-76
2022/06/24 04:20:27;;;;;;;11.13;6.43;;;;;;;20.38;100.00;97600.38;5084325;28;20024;-77
2022/06/24 04:22:52;;;;;;;9.40;7.05;;;;;;;20.36;100.00;97597.19;5072701;28;20029;-75
2022/06/24 04:25:17;;;;;;;11.55;6.97;;;;;;;20.45;100.00;97600.53;5072624;28;20040;-77
2022/06/24 04:27:43;;;;;;;10.35;6.40;;;;;;;20.53;100.00;97605.84;5072291;28;20029;-75
2022/06/24 04:30:10;;;;;;;10.98;6.38;;;;;;;20.61;100.00;97604.00;5072410;28;20035;-77
2022/06/24 04:32:36;;;;;;;8.98;6.82;;;;;;;20.65;100.00;97608.44;5072440;28;20385;-77
2022/06/24 04:35:02;;;;;;;8.63;6.70;;;;;;;20.59;100.00;97607.13;5072060;28;20123;-75
2022/06/24 04:37:28;;;;;;;8.48;6.60;;;;;;;20.64;100.00;97620.72;5072321;28;20055;-75
2022/06/24 04:39:55;;;;;;;8.60;5.40;;;;;;;20.67;100.00;97620.03;5072401;28;20103;-75
2022/06/24 04:42:21;;;;;;;7.60;5.70;;;;;;;20.81;100.00;97613.88;5074187;28;20568;-80
2022/06/24 04:44:46;;;;;;;7.78;5.72;;;;;;;20.79;100.00;97614.28;5074346;28;20115;-79
2022/06/24 04:47:13;;;;;;;11.07;5.82;;;;;;;20.87;100.00;97611.59;5080262;28;20017;-79
2022/06/24 04:49:38;;;;;;;7.53;5.38;;;;;;;20.65;100.00;97614.00;5075394;28;20025;-78
2022/06/24 04:52:05;;;;;;;13.23;5.25;;;;;;;20.86;100.00;97621.94;5081228;28;20032;-78
2022/06/24 04:54:31;;;;;;;7.55;5.05;;;;;;;20.78;100.00;97609.06;5078098;28;20429;-73
2022/06/24 04:56:56;;;;;;;6.43;5.15;;;;;;;20.76;100.00;97617.00;5086238;28;20024;-80
2022/06/24 04:59:21;;;;;;;8.02;4.50;;;;;;;20.66;100.00;97618.41;5104328;28;20028;-83
2022/06/24 05:01:46;;;;;;;8.88;4.40;;;;;;;20.80;100.00;97623.41;5101666;28;20115;-84
2022/06/24 05:04:13;;;;;;;6.57;4.35;;;;;;;20.52;100.00;97617.31;5106522;28;20012;-76
2022/06/24 05:06:39;;;;;;;10.57;5.45;;;;;;;20.46;100.00;97621.56;5092188;28;20045;-77
2022/06/24 05:09:04;;;;;;;7.57;5.13;;;;;;;20.61;100.00;97617.91;5092171;28;20051;-76
2022/06/24 05:11:29;;;;;;;8.10;5.80;;;;;;;20.90;100.00;97622.78;5098582;28;20112;-84
2022/06/24 05:13:55;;;;;;;7.15;5.22;;;;;;;20.97;100.00;97616.53;5107701;28;20039;-81
2022/06/24 05:16:20;;;;;;;9.80;5.38;;;;;;;20.86;100.00;97621.94;5108832;28;20024;-78
2022/06/24 05:18:45;;;;;;;8.82;4.88;;;;;;;21.14;100.00;97616.09;5108687;28;20028;-86
2022/06/24 05:21:11;;;;;;;8.48;5.22;;;;;;;21.32;100.00;97617.97;5108012;28;20028;-85
2022/06/24 05:23:36;;;;;;;8.00;5.10;;;;;;;21.25;100.00;97628.97;5107457;28;20476;-76
2022/06/24 05:26:01;;;;;;;7.55;4.68;;;;;;;20.94;100.00;97623.66;5098539;28;20095;-78
2022/06/24 05:28:27;;;;;;;5.95;4.10;;;;;;;21.35;100.00;97622.78;5106040;28;20024;-83
2022/06/24 05:30:57;;;;;;;5.25;4.35;;;;;;;21.15;100.00;97628.78;5111901;28;20111;-80
2022/06/24 05:33:23;;;;;;;8.18;4.25;;;;;;;21.40;100.00;97623.63;5101264;28;20039;-77
2022/06/24 05:35:54;;;;;;;6.93;4.28;;;;;;;21.79;100.00;97627.81;5093084;28;20024;-78
2022/06/24 05:38:21;;;;;;;7.18;4.45;;;;;;;22.05;100.00;97638.94;5089854;28;20047;-74
2022/06/24 05:40:48;;;;;;;6.40;4.07;;;;;;;21.62;100.00;97639.47;5088016;28;20059;-76
2022/06/24 05:43:14;;;;;;;7.38;4.63;;;;;;;21.70;100.00;97642.00;5090564;28;20031;-74
2022/06/24 05:45:40;;;;;;;6.57;4.30;;;;;;;21.87;100.00;97643.41;5091977;28;20101;-75
2022/06/24 05:48:05;;;;;;;7.00;4.40;;;;;;;22.03;100.00;97646.84;5090731;28;20529;-75
2022/06/24 05:50:31;;;;;;;6.13;4.03;;;;;;;22.09;100.00;97650.91;5090268;28;20115;-77
2022/06/24 05:55:40;;;;;;;6.43;4.30;;;;;;;22.26;100.00;97643.97;5090247;28;20047;-78
2022/06/24 05:58:06;;;;;;;6.75;4.60;;;;;;;21.97;100.00;97642.81;5090655;28;20016;-73
2022/06/24 06:00:31;;;;;;;8.25;5.18;;;;;;;21.52;100.00;97657.63;5091810;28;20028;-75
2022/06/24 06:02:57;;;;;;;8.10;4.90;;;;;;;21.89;100.00;97657.81;5093441;28;20020;-76
2022/06/24 06:05:22;;;;;;;5.97;4.53;;;;;;;22.33;100.00;97658.00;5091370;28;20016;-75
2022/06/24 06:07:48;;;;;;;9.13;4.80;;;;;;;22.87;100.00;97655.44;5092269;28;20642;-79
2022/06/24 06:10:13;;;;;;;8.05;4.88;;;;;;;22.04;100.00;97656.84;5093841;28;20715;-80
2022/06/24 06:12:42;;;;;;;7.95;4.78;;;;;;;22.89;100.00;97663.44;5089434;28;20040;-79
2022/06/24 06:15:07;;;;;;;8.25;4.93;;;;;;;23.54;100.00;97662.84;5092234;28;20039;-84
2022/06/24 06:17:33;;;;;;;7.78;5.07;;;;;;;24.05;100.00;97669.19;5092312;28;20024;-76
2022/06/24 06:19:58;;;;;;;8.95;4.93;;;;;;;24.16;100.00;97681.25;5089340;28;20165;-74
2022/06/24 06:22:24;;;;;;;9.15;5.28;;;;;;;24.34;100.00;97668.16;5085022;28;20035;-76
2022/06/24 06:24:49;;;;;;;8.82;4.72;;;;;;;24.18;100.00;97676.09;5084049;28;20032;-78
2022/06/24 06:27:14;;;;;;;11.20;4.45;;;;;;;23.56;100.00;97674.41;5084357;28;20016;-73
2022/06/24 06:29:40;;;;;;;6.90;4.65;;;;;;;24.46;97.53;97665.00;5081930;28;20519;-74
2022/06/24 06:32:05;;;;;;;10.93;4.28;;;;;;;25.07;95.03;97660.41;5085199;28;20032;-75
2022/06/24 06:34:32;;;;;;;8.40;5.18;;;;;;;23.88;100.00;97667.06;5090441;28;20032;-76
2022/06/24 06:36:57;;;;;;;6.57;3.88;;;;;;;23.87;97.84;97663.47;5093471;28;20095;-82
2022/06/24 06:39:23;;;;;;;5.53;4.30;;;;;;;24.31;94.27;97663.34;5108446;28;20059;-85
2022/06/24 06:41:48;;;;;;;6.63;4.50;;;;;;;24.07;99.01;97668.78;5105199;28;20020;-78
2022/06/24 06:44:16;;;;;;;6.20;4.68;;;;;;;23.83;100.00;97661.88;5092629;28;20019;-83
2022/06/24 06:46:42;;;;;;;6.03;4.45;;;;;;;24.03;100.00;97665.19;5095880;28;20119;-76
2022/06/24 06:49:07;;;;;;;8.13;5.00;;;;;;;24.46;98.33;97667.78;5090532;28;20067;-74
2022/06/24 06:51:33;;;;;;;7.47;4.35;;;;;;;24.61;96.77;97665.88;5088287;28;20059;-79
2022/06/24 06:53:58;;;;;;;8.68;5.57;;;;;;;24.59;97.26;97661.88;5088221;28;20038;-78
2022/06/24 06:56:23;;;;;;;7.15;5.40;;;;;;;24.99;94.61;97656.81;5090768;28;20380;-80
2022/06/24 06:58:49;;;;;;;7.82;4.30;;;;;;;25.11;93.41;97654.81;5093549;28;20164;-76
2022/06/24 07:01:14;;;;;;;6.78;4.78;;;;;;;25.14;93.79;97654.81;5089955;28;20534;-79
2022/06/24 07:03:40;;;;;;;13.55;5.63;;;;;;;24.89;96.48;97648.38;5094069;28;20591;-79
2022/06/24 07:06:05;;;;;;;8.65;4.57;;;;;;;25.48;93.07;97653.22;5089452;28;20512;-78
2022/06/24 07:08:31;;;;;;;6.15;4.43;;;;;;;25.09;95.27;97652.44;5086767;28;20036;-75
2022/06/24 07:10:57;;;;;;;8.40;4.75;;;;;;;24.40;97.66;97655.38;5087294;28;20024;-78
2022/06/24 07:13:23;;;;;;;9.07;4.75;;;;;;;24.37;100.00;97650.59;5088124;28;20139;-76
2022/06/24 07:15:48;;;;;;;8.07;4.43;;;;;;;25.20;96.52;97644.81;5089399;28;20103;-77
2022/06/24 07:18:14;;;;;;;7.63;4.40;;;;;;;25.01;96.69;97650.78;5069400;28;21067;-77
2022/06/24 07:20:40;;;;;;;8.32;5.32;;;;;;;25.02;96.17;97646.81;5076359;28;20028;-83
2022/06/24 07:23:05;;;;;;;7.53;5.00;;;;;;;25.25;94.49;97652.81;5106892;28;20039;-85
2022/06/24 07:25:31;;;;;;;7.97;5.00;;;;;;;25.76;91.60;97646.81;5098845;28;20546;-80
2022/06/24 07:27:56;;;;;;;6.85;4.72;;;;;;;26.28;90.48;97642.28;5092369;28;20024;-80
2022/06/24 07:30:22;;;;;;;6.53;5.03;;;;;;;25.47;93.52;97650.81;5089089;28;20078;-81
2022/06/24 07:32:47;;;;;;;9.40;5.00;;;;;;;25.27;93.84;97646.81;5098028;28;20025;-79
2022/06/24 07:35:13;;;;;;;7.43;4.60;;;;;;;25.16;94.57;97634.81;5096217;28;20035;-80
2022/06/24 07:37:41;;;;;;;6.57;4.82;;;;;;;25.69;91.66;97637.63;5098069;28;20016;-84
2022/06/24 07:40:07;;;;;;;8.95;4.60;;;;;;;25.42;94.13;97634.41;5116987;28;20030;-83
2022/06/24 07:42:34;;;;;;;10.85;5.00;;;;;;;25.04;97.65;97628.41;5102796;28;20072;-88
2022/06/24 07:45:00;;;;;;;9.25;5.55;;;;;;;24.22;100.00;97631.34;5095043;28;20110;-74
2022/06/24 07:47:25;;;;;;;6.93;5.22;;;;;;;23.79;100.00;97625.50;5094910;28;20111;-75
2022/06/24 07:49:50;;;;;;;12.70;5.95;;;;;;;24.64;99.82;97625.91;5093945;28;20027;-76
2022/06/24 07:52:16;;;;;;;9.02;5.30;;;;;;;24.58;100.00;97632.28;5093758;28;20461;-75
2022/06/24 07:54:41;;;;;;;8.65;6.05;;;;;;;24.35;100.00;97632.59;5093776;28;20024;-75
2022/06/24 07:57:06;;;;;;;7.72;5.03;;;;;;;24.90;99.11;97624.81;5092138;28;20396;-75
2022/06/24 07:59:37;;;;;;;8.57;5.57;;;;;;;23.99;100.00;97624.00;5093639;28;20064;-75
2022/06/24 08:02:05;;;;;;;6.78;5.00;;;;;;;24.31;100.00;97624.19;5093428;28;20467;-76
2022/06/24 08:04:30;;;;;;;8.85;5.40;;;;;;;24.85;100.00;97611.19;5093367;28;20024;-75
2022/06/24 08:06:57;;;;;;;8.43;5.07;;;;;;;24.92;98.07;97622.41;5093417;28;20051;-76
2022/06/24 08:09:30;;;;;;;8.23;4.72;;;;;;;25.21;97.66;97634.44;5093240;28;20518;-76
2022/06/24 08:11:55;;;;;;;9.20;5.68;;;;;;;25.77;94.84;97631.63;5093422;28;20080;-75
2022/06/24 08:14:21;;;;;;;8.65;5.90;;;;;;;25.83;91.01;97626.38;5093708;28;20070;-75
2022/06/24 08:16:46;;;;;;;7.22;4.65;;;;;;;26.38;90.08;97623.81;5093537;28;20059;-75
2022/06/24 08:19:12;;;;;;;8.93;5.28;;;;;;;26.96;86.85;97618.34;5092901;28;20032;-76
2022/06/24 08:21:38;;;;;;;8.23;5.75;;;;;;;26.86;87.50;97613.56;5093236;28;20059;-75
2022/06/24 08:24:04;;;;;;;7.80;5.35;;;;;;;26.96;85.79;97614.72;5089734;28;20043;-75
2022/06/24 08:26:29;;;;;;;8.02;5.03;;;;;;;26.39;87.92;97603.78;5093500;28;20028;-75
2022/06/24 08:28:55;;;;;;;9.70;5.68;;;;;;;26.86;84.56;97601.53;5093198;28;20077;-75
2022/06/24 08:31:21;;;;;;;8.85;5.25;;;;;;;26.78;85.37;97599.97;5089790;28;20491;-75
2022/06/24 08:33:47;;;;;;;10.60;5.85;;;;;;;26.26;86.48;97599.84;5092945;28;20024;-75
2022/06/24 08:36:12;;;;;;;16.48;6.18;;;;;;;26.62;85.79;97603.28;5092857;28;20036;-75
2022/06/24 08:38:38;;;;;;;8.45;5.20;;;;;;;26.06;87.77;97604.31;5093019;28;20055;-75
2022/06/24 08:41:04;;;;;;;7.68;5.30;;;;;;;27.00;84.07;97595.84;5093042;28;20016;-74
2022/06/24 08:43:31;;;;;;;8.20;5.15;;;;;;;27.42;80.09;97598.28;5091572;28;20023;-74
2022/06/24 08:45:57;;;;;;;9.13;6.43;;;;;;;27.51;79.37;97597.84;5092439;28;20035;-75
2022/06/24 08:48:25;;;;;;;10.25;5.47;;;;;;;27.68;78.83;97596.88;5095540;28;20102;-75
2022/06/24 08:50:51;;;;;;;11.07;5.95;;;;;;;27.79;78.43;97602.38;5099956;28;20046;-75
2022/06/24 08:53:20;;;;;;;11.43;5.90;;;;;;;27.93;78.06;97602.22;5101087;28;20024;-75
2022/06/24 08:55:50;;;;;;;10.95;5.80;;;;;;;27.51;80.04;97598.63;5104269;28;20118;-76
2022/06/24 08:58:17;;;;;;;7.25;5.53;;;;;;;27.46;80.45;97607.53;5095394;28;20028;-75
2022/06/24 09:00:43;;;;;;;8.05;5.80;;;;;;;27.22;81.93;97599.28;5107819;28;20111;-75
2022/06/24 09:03:09;;;;;;;8.35;6.20;;;;;;;27.41;81.44;97604.34;5100331;28;20114;-74
2022/06/24 09:05:37;;;;;;;8.65;5.53;;;;;;;26.93;83.82;97590.28;5099783;28;20106;-76
2022/06/24 09:08:11;;;;;;;8.75;5.65;;;;;;;27.68;80.58;97596.88;5112798;28;20055;-76
2022/06/24 09:10:39;;;;;;;8.43;5.72;;;;;;;28.05;78.48;97593.28;5086008;28;20063;-75
2022/06/24 09:13:05;;;;;;;8.35;5.57;;;;;;;27.64;79.43;97584.84;5107639;27;20075;-75
2022/06/24 09:15:31;;;;;;;11.88;5.80;;;;;;;27.38;81.00;97591.91;5101838;28;20058;-75
2022/06/24 09:17:59;;;;;;;9.85;6.20;;;;;;;27.54;79.10;97580.13;5112903;27;20468;-75
2022/06/24 09:20:26;;;;;;;8.93;5.55;;;;;;;28.29;76.01;97586.53;5092070;28;20024;-75
2022/06/24 09:23:13;;;;;;;10.98;5.95;;;;;;;28.89;72.90;97585.75;5105573;28;20016;-73
2022/06/24 09:25:47;;;;;;;8.75;5.85;;;;;;;27.08;80.66;97581.31;5094781;28;20023;-74
2022/06/24 09:28:23;;;;;;;12.20;5.90;;;;;;;27.86;79.59;97577.00;5094702;28;20046;-75
2022/06/24 09:30:50;;;;;;;11.10;6.07;;;;;;;28.39;76.02;97568.72;5105628;28;20115;-75
2022/06/24 09:33:17;;;;;;;12.93;6.32;;;;;;;28.11;75.20;97574.72;5100845;28;20035;-72
2022/06/24 09:35:43;;;;;;;11.80;5.97;;;;;;;28.31;74.47;97567.25;5097243;28;20039;-72
2022/06/24 09:38:09;;;;;;;8.48;5.90;;;;;;;28.48;73.57;97571.81;5091470;28;20020;-72
2022/06/24 09:40:34;;;;;;;8.93;5.95;;;;;;;28.38;74.77;97569.94;5095495;28;20031;-72
2022/06/24 09:43:01;;;;;;;11.50;5.93;;;;;;;28.79;73.26;97575.44;5091037;28;20015;-72
2022/06/24 09:45:43;;;;;;;17.25;6.10;;;;;;;27.61;79.20;97575.25;5091266;28;20024;-72
2022/06/24 09:48:10;;;;;;;13.00;6.53;;;;;;;27.49;79.05;97572.16;5090271;28;20392;-72
2022/06/24 09:50:36;;;;;;;18.10;6.28;;;;;;;27.60;79.34;97568.03;5107675;28;20381;-72
2022/06/24 09:53:02;;;;;;;8.60;6.55;;;;;;;28.11;76.95;97563.47;5098473;28;20022;-71
2022/06/24 09:55:28;;;;;;;12.00;5.88;;;;;;;28.30;73.98;97560.00;5099899;28;20085;-72
2022/06/24 09:57:55;;;;;;;10.70;6.35;;;;;;;27.59;75.49;97558.03;5099180;28;20482;-72
2022/06/24 10:03:08;;;;;;;11.03;5.73;;;;;;;28.62;73.71;97548.31;5085705;28;20035;-70
2022/06/24 10:05:35;;;;;;;10.00;5.63;;;;;;;28.59;73.26;97555.59;5088345;28;20145;-70
2022/06/24 10:08:04;;;;;;;12.10;6.18;;;;;;;28.86;71.11;97546.34;5088332;28;20036;-70
2022/06/24 10:10:32;;;;;;;9.52;5.65;;;;;;;29.32;68.93;97540.00;5089259;28;20027;-70
2022/06/24 10:13:08;;;;;;;13.18;5.95;;;;;;;29.77;65.18;97539.13;5097377;28;20502;-70
2022/06/24 10:15:34;;;;;;;11.75;5.93;;;;;;;28.62;67.36;97537.06;5098120;28;20392;-70
2022/06/24 10:18:01;;;;;;;11.57;6.18;;;;;;;28.48;67.20;97545.69;5092278;28;20048;-70
2022/06/24 10:20:27;;;;;;;14.43;5.82;;;;;;;29.36;64.11;97537.91;5100326;28;20110;-70
2022/06/24 10:22:54;;;;;;;8.70;5.75;;;;;;;30.09;61.71;97543.38;5104579;28;20020;-70
2022/06/24 10:25:48;;;;;;;14.25;6.00;;;;;;;30.62;59.93;97536.59;5093105;28;20088;-71
2022/06/24 10:28:14;;;;;;;14.23;7.45;;;;;;;30.43;59.74;97529.75;5099427;28;20067;-70
2022/06/24 10:30:39;;;;;;;15.55;6.53;;;;;;;30.99;58.23;97526.84;5104180;28;20054;-71
2022/06/24 10:33:11;;;;;;;9.73;6.30;;;;;;;30.03;59.63;97526.16;5102470;28;20028;-71
2022/06/24 10:35:56;;;;;;;8.80;5.35;;;;;;;29.19;62.74;97517.25;5102035;28;20032;-72
2022/06/24 10:38:23;;;;;;;11.63;6.78;;;;;;;29.42;62.57;97514.44;5093133;28;20036;-71
2022/06/24 10:40:50;;;;;;;10.52;5.53;;;;;;;29.93;61.12;97509.44;5104427;28;20048;-70
2022/06/24 10:43:35;;;;;;;12.48;6.03;;;;;;;30.18;59.71;97501.25;5099668;28;20176;-71
2022/06/24 10:46:13;;;;;;;10.30;5.72;;;;;;;30.41;57.91;97501.19;5094359;28;20027;-70
2022/06/24 10:48:44;;;;;;;12.93;6.32;;;;;;;29.60;60.38;97511.28;5088850;28;20047;-71
2022/06/24 10:51:17;;;;;;;17.42;6.22;;;;;;;29.19;60.78;97491.88;5099589;28;20885;-70
2022/06/24 10:54:01;;;;;;;11.65;5.70;;;;;;;30.16;57.47;97486.78;5097458;28;20039;-71
2022/06/24 10:56:40;;;;;;;12.50;5.72;;;;;;;29.73;58.72;97490.44;5106470;28;20024;-70
2022/06/24 10:59:05;;;;;;;11.98;6.30;;;;;;;29.65;59.62;97494.66;5098006;28;20075;-71
2022/06/24 11:01:32;;;;;;;10.77;5.38;;;;;;;30.16;58.08;97493.22;5088514;28;20119;-71
2022/06/24 11:04:04;;;;;;;11.30;5.90;;;;;;;29.49;59.37;97482.50;5084530;28;20020;-71
2022/06/24 11:06:29;;;;;;;13.45;6.15;;;;;;;28.53;61.10;97484.09;5083573;28;20623;-70
2022/06/24 11:08:55;;;;;;;11.15;5.75;;;;;;;27.88;63.85;97478.97;5087014;28;20035;-70
2022/06/24 11:11:30;;;;;;;18.50;6.38;;;;;;;28.30;64.06;97469.97;5090445;28;20036;-70
2022/06/24 11:13:56;;;;;;;10.88;5.38;;;;;;;28.00;64.87;97472.78;5091682;28;20028;-69
2022/06/24 11:16:25;;;;;;;21.40;6.75;;;;;;;28.95;63.23;97470.56;5090270;28;20009;-70
2022/06/24 11:18:50;;;;;;;12.90;5.10;;;;;;;29.45;60.51;97478.94;5091984;28;20061;-70
2022/06/24 11:21:19;;;;;;;9.73;5.28;;;;;;;30.32;58.30;97471.91;5089832;28;20380;-70
2022/06/24 11:23:52;;;;;;;15.40;6.60;;;;;;;30.70;57.06;97482.31;5092400;28;20032;-70
2022/06/24 11:26:19;;;;;;;13.75;5.68;;;;;;;30.75;57.34;97470.50;5089181;28;20032;-71
2022/06/24 11:28:55;;;;;;;8.63;5.53;;;;;;;30.87;57.82;97473.84;5088094;28;20044;-73
2022/06/24 11:31:23;;;;;;;16.02;6.35;;;;;;;30.82;57.97;97468.72;5092317;28;20028;-78
2022/06/24 11:34:08;;;;;;;15.20;6.32;;;;;;;30.13;60.37;97465.09;5090143;28;20110;-76